首页
METAR-TAF:

METAR-TAF

机场 :

德拉姆堡, 紐約州, 美国

纬度: 44-03N, 经度: 075-44W, 海拔: 207米

当前天气观测

该预报发布于53分钟前的01:56 UTC
风速5节,风向南转西南
温度 20°C
湿度 83%
气压 1017 hPa
能見度: 16.1公里
天空无云

METAR: KGTB 270156Z AUTO 21005KT 10SM CLR 20/17 A3002 RMK AO2 SLP164 T02020166

时间: 22:49 (02:49 UTC)

预报

该预报发布于1小时和49分钟前的01:00 UTC
预报有效从27日的 01点(UTC)到 28日的 07点(UTC)
风速9节,风向西转西南
能见度10公里或以上
少量云层高于6500英尺
成为
从 27日的 16点(UTC)到 27日的 17点(UTC)
风速10节,风向西转西南,有时为15节阵风
能见度10公里或以上
少量云层高于8500英尺
成为
从 28日的 04点(UTC)到 28日的 05点(UTC)
风速6节,风向西南
能见度10公里或以上
少量云层高于6500英尺

TAF: KGTB 270100Z 2701/2807 25009KT 9999 FEW065 QNH2998INS BECMG 2716/2717 25010G15KT 9999 FEW085 QNH3012INS BECMG 2804/2805 23006KT 9999 FEW065 510063 QNH3017INS TX24/2719Z TN15/2710Z

超过4000个机场的气象观测和天气预报(METAR&TAF报告)。

可查询的气象台以黄色和红色小点在地图上表示。

将鼠标移到小点上方,可查看气象台名称。

然后点击查看天气观测和预报。

如需切换地图:点击带黑十字的绿色按钮放大地图;点击带横线的绿色按钮缩小地图;或者点击绿色箭头查看邻近地区的地图。


METAR-TAF: